createdAt,value
2019-04-05T00:00:48.099Z,44.85
2019-04-05T00:03:19.793Z,47.55
2019-04-05T00:05:51.452Z,48.13
2019-04-05T00:08:23.207Z,45.98
2019-04-05T00:10:54.885Z,49.30
2019-04-05T00:13:27.751Z,50.70
2019-04-05T00:15:59.306Z,48.28
2019-04-05T00:18:30.982Z,52.00
2019-04-05T00:21:02.629Z,52.08
2019-04-05T00:23:34.281Z,51.80
2019-04-05T00:26:06.149Z,52.05
2019-04-05T00:28:37.722Z,48.20
2019-04-05T00:31:09.360Z,48.33
2019-04-05T00:33:40.912Z,48.15
2019-04-05T00:36:12.678Z,50.48
2019-04-05T00:38:44.125Z,50.35
2019-04-05T00:41:15.694Z,48.95
2019-04-05T00:43:47.459Z,47.65
2019-04-05T00:46:19.115Z,47.65
2019-04-05T00:48:50.758Z,47.50
2019-04-05T00:51:22.619Z,47.10
2019-04-05T00:53:53.959Z,48.75
2019-04-05T00:56:26.753Z,48.85
2019-04-05T00:58:58.106Z,47.25
2019-04-05T01:01:29.663Z,45.95
2019-04-05T01:04:01.332Z,46.80
2019-04-05T01:06:32.996Z,47.38
2019-04-05T01:09:06.248Z,44.95
2019-04-05T01:11:37.620Z,44.53
2019-04-05T01:14:09.187Z,46.33
2019-04-05T01:16:40.936Z,46.18
2019-04-05T01:19:12.737Z,43.45
2019-04-05T01:21:46.301Z,48.68
2019-04-05T01:24:18.062Z,46.45
2019-04-05T01:26:49.400Z,44.77
2019-04-05T01:29:21.071Z,58.15
2019-04-05T01:31:52.831Z,48.58
2019-04-05T01:34:24.691Z,45.08
2019-04-05T01:36:56.245Z,48.25
2019-04-05T01:39:28.009Z,47.15
2019-04-05T01:41:59.769Z,50.73
2019-04-05T01:44:31.323Z,54.23
2019-04-05T01:47:03.030Z,55.00
2019-04-05T01:49:34.654Z,57.62
2019-04-05T01:52:06.498Z,51.85
2019-04-05T01:54:38.066Z,52.70
2019-04-05T01:57:09.719Z,55.78
2019-04-05T01:59:42.511Z,53.52
2019-04-05T02:02:14.258Z,52.43
2019-04-05T02:04:45.813Z,52.50
2019-04-05T02:07:17.471Z,52.95
2019-04-05T02:09:49.335Z,56.28
2019-04-05T02:12:20.787Z,56.20
2019-04-05T02:14:52.272Z,52.45
2019-04-05T02:17:23.997Z,53.33
2019-04-05T02:19:55.763Z,54.30
2019-04-05T02:22:27.420Z,55.92
2019-04-05T02:24:58.977Z,56.98
2019-04-05T02:27:30.846Z,56.37
2019-04-05T02:30:02.392Z,46.75
2019-04-05T02:32:34.256Z,50.17
2019-04-05T02:35:06.736Z,57.20
2019-04-05T02:37:38.182Z,48.55
2019-04-05T02:40:14.501Z,49.20
2019-04-05T02:42:48.340Z,53.42
2019-04-05T02:45:20.114Z,59.25
2019-04-05T02:47:54.003Z,54.70
2019-04-05T02:50:26.067Z,51.58
2019-04-05T02:52:59.603Z,48.90
2019-04-05T02:55:31.045Z,46.50
2019-04-05T02:58:02.712Z,46.28
2019-04-05T03:00:34.463Z,46.02
2019-04-05T03:03:06.162Z,46.13
2019-04-05T03:05:37.887Z,44.08
2019-04-05T03:08:09.749Z,46.18
2019-04-05T03:11:03.835Z,47.40
2019-04-05T03:13:36.598Z,48.38
2019-04-05T03:16:12.862Z,60.45
2019-04-05T03:18:47.318Z,51.53
2019-04-05T03:21:19.038Z,48.85
2019-04-05T03:23:50.731Z,48.63
2019-04-05T03:26:23.378Z,48.20
2019-04-05T03:28:55.071Z,45.70
2019-04-05T03:31:27.114Z,49.53
2019-04-05T03:33:58.769Z,49.45
2019-04-05T03:36:30.622Z,48.73
2019-04-05T03:39:02.111Z,53.52
2019-04-05T03:41:34.261Z,53.38
2019-04-05T03:44:06.419Z,52.23
2019-04-05T03:46:37.773Z,51.10
2019-04-05T03:49:09.233Z,53.98
2019-04-05T03:51:40.877Z,51.55
2019-04-05T03:54:12.432Z,50.45
2019-04-05T03:56:44.197Z,51.37
2019-04-05T03:59:17.299Z,47.23
2019-04-05T04:01:48.939Z,46.77
2019-04-05T04:04:20.631Z,46.90
2019-04-05T04:06:52.366Z,48.92
2019-04-05T04:09:24.015Z,47.33
2019-04-05T04:11:55.480Z,46.85
2019-04-05T04:14:27.329Z,46.65
2019-04-05T04:17:11.514Z,44.70
2019-04-05T04:19:33.612Z,44.25
2019-04-05T04:22:11.110Z,46.53
2019-04-05T04:24:42.661Z,48.33
2019-04-05T04:27:14.317Z,45.52
2019-04-05T04:29:45.809Z,45.43
2019-04-05T04:32:17.740Z,45.83
2019-04-05T04:34:49.188Z,46.53
2019-04-05T04:37:20.770Z,54.38
2019-04-05T04:39:52.603Z,57.23
2019-04-05T04:42:24.167Z,57.13
2019-04-05T04:44:55.843Z,62.75
2019-04-05T04:47:27.633Z,57.40
2019-04-05T04:49:59.340Z,55.28
2019-04-05T04:52:31.576Z,53.48
2019-04-05T04:55:03.089Z,49.33
2019-04-05T04:57:34.918Z,48.45
2019-04-05T05:00:06.689Z,47.30
2019-04-05T05:02:38.416Z,48.87
2019-04-05T05:05:10.209Z,50.60
2019-04-05T05:07:41.974Z,49.65
2019-04-05T05:10:13.738Z,49.55
2019-04-05T05:12:45.385Z,47.10
2019-04-05T05:15:18.276Z,49.10
2019-04-05T05:17:58.421Z,47.95
2019-04-05T05:20:22.815Z,47.73
2019-04-05T05:22:56.011Z,49.03
2019-04-05T05:25:27.767Z,48.42
2019-04-05T05:28:00.549Z,49.40
2019-04-05T05:30:33.030Z,49.73
2019-04-05T05:33:04.585Z,48.98
2019-04-05T05:35:36.247Z,49.60
2019-04-05T05:38:07.801Z,44.60
2019-04-05T05:40:39.557Z,44.58
2019-04-05T05:43:11.321Z,43.65
2019-04-05T05:45:42.871Z,42.30
2019-04-05T05:48:14.737Z,50.20
2019-04-05T05:50:46.493Z,50.33
2019-04-05T05:53:17.816Z,48.52
2019-04-05T05:55:49.609Z,48.60
2019-04-05T05:58:21.223Z,52.33
2019-04-05T06:00:53.948Z,50.15
2019-04-05T06:03:25.813Z,53.10
2019-04-05T06:06:04.094Z,49.42
2019-04-05T06:08:30.758Z,48.33
2019-04-05T06:11:02.520Z,47.55
2019-04-05T06:13:34.388Z,45.73
2019-04-05T06:16:06.891Z,43.42
2019-04-05T06:18:39.536Z,41.35
2019-04-05T06:21:11.111Z,41.02
2019-04-05T06:23:42.676Z,41.60
2019-04-05T06:26:14.309Z,38.83
2019-04-05T06:28:46.166Z,43.55
2019-04-05T06:31:17.965Z,43.15
2019-04-05T06:33:49.693Z,43.28
2019-04-05T06:36:21.244Z,44.18
2019-04-05T06:38:52.907Z,38.58
2019-04-05T06:41:24.557Z,37.63
2019-04-05T06:43:56.436Z,37.73
2019-04-05T06:46:27.879Z,41.95
2019-04-05T06:48:59.740Z,41.80
2019-04-05T06:51:31.398Z,37.65
2019-04-05T06:54:03.478Z,41.60
2019-04-05T06:56:35.937Z,32.55
2019-04-05T06:59:09.753Z,29.20
2019-04-05T07:01:41.205Z,32.80
2019-04-05T07:04:13.065Z,24.02
2019-04-05T07:06:44.724Z,24.50
2019-04-05T07:09:16.589Z,23.73
2019-04-05T07:11:48.343Z,19.92
2019-04-05T07:14:20.205Z,18.32
2019-04-05T07:16:52.553Z,19.60
2019-04-05T07:19:24.143Z,22.17
2019-04-05T07:21:55.895Z,20.52
2019-04-05T07:24:27.348Z,22.75
2019-04-05T07:26:59.015Z,30.17
2019-04-05T07:29:30.396Z,27.10
2019-04-05T07:32:02.121Z,20.95
2019-04-05T07:34:33.572Z,20.95
2019-04-05T07:37:05.236Z,22.75
2019-04-05T07:39:37.089Z,19.80
2019-04-05T07:42:08.545Z,18.85
2019-04-05T07:44:40.308Z,20.52
2019-04-05T07:47:11.759Z,23.10
2019-04-05T07:49:43.341Z,23.73
2019-04-05T07:52:15.068Z,20.00
2019-04-05T07:54:46.861Z,19.00
2019-04-05T07:57:18.596Z,17.50
2019-04-05T07:59:50.086Z,16.75
2019-04-05T08:02:21.711Z,11.93
2019-04-05T08:04:54.763Z,12.20
2019-04-05T08:07:29.634Z,13.32
2019-04-05T08:10:02.999Z,13.68
2019-04-05T08:12:34.374Z,12.13
2019-04-05T08:15:06.527Z,12.63
2019-04-05T08:17:39.315Z,12.85
2019-04-05T08:20:11.085Z,12.68
2019-04-05T08:22:42.848Z,11.57
2019-04-05T08:25:14.315Z,11.40
2019-04-05T08:27:46.164Z,13.10
2019-04-05T08:30:17.821Z,12.30
2019-04-05T08:32:49.486Z,14.63
2019-04-05T08:35:21.243Z,14.63
2019-04-05T08:37:52.997Z,14.38
2019-04-05T08:40:24.655Z,13.68
2019-04-05T08:42:56.731Z,13.58
2019-04-05T08:45:28.186Z,10.38
2019-04-05T08:47:59.936Z,11.48
2019-04-05T08:50:31.328Z,12.33
2019-04-05T08:53:02.947Z,11.50
2019-04-05T08:55:34.806Z,11.55
2019-04-05T08:58:06.470Z,11.35
2019-04-05T09:00:38.431Z,25.48
2019-04-05T09:03:11.924Z,11.90
2019-04-05T09:05:43.896Z,11.43
2019-04-05T09:08:15.455Z,12.28
2019-04-05T09:10:47.115Z,11.97
2019-04-05T09:13:18.864Z,12.03
2019-04-05T09:15:50.527Z,12.80
2019-04-05T09:18:23.363Z,12.05
2019-04-05T09:20:55.002Z,12.15
2019-04-05T09:23:26.727Z,12.28
2019-04-05T09:25:58.194Z,13.22
2019-04-05T09:28:30.042Z,12.68
2019-04-05T09:31:01.598Z,12.10
2019-04-05T09:33:33.254Z,13.08
2019-04-05T09:36:04.653Z,14.93
2019-04-05T09:38:36.366Z,12.55
2019-04-05T09:41:07.793Z,15.60
2019-04-05T09:43:39.491Z,15.85
2019-04-05T09:46:11.238Z,16.25
2019-04-05T09:48:42.901Z,14.73
2019-04-05T09:51:14.832Z,12.55
2019-04-05T09:53:46.415Z,12.55
2019-04-05T09:56:18.072Z,11.85
2019-04-05T09:58:49.950Z,11.55
2019-04-05T10:01:21.705Z,11.78
2019-04-05T10:03:53.352Z,12.53
2019-04-05T10:06:24.914Z,10.55
2019-04-05T10:08:56.566Z,10.63
2019-04-05T10:11:28.232Z,11.50
2019-04-05T10:14:00.090Z,11.78
2019-04-05T10:16:31.643Z,10.85
2019-04-05T10:19:03.405Z,10.95
2019-04-05T10:21:34.902Z,11.40
2019-04-05T10:24:06.720Z,11.80
2019-04-05T10:26:38.397Z,11.60
2019-04-05T10:29:10.133Z,11.00
2019-04-05T10:31:41.901Z,10.95
2019-04-05T10:34:13.451Z,11.93
2019-04-05T10:36:45.109Z,10.55
2019-04-05T10:39:16.869Z,11.45
2019-04-05T10:41:48.428Z,9.80
2019-04-05T10:44:20.392Z,11.43
2019-04-05T10:46:52.903Z,14.93
2019-04-05T10:49:24.634Z,11.18
2019-04-05T10:51:56.125Z,11.43
2019-04-05T10:54:27.839Z,13.38
2019-04-05T10:56:59.407Z,10.68
2019-04-05T10:59:31.167Z,11.18
2019-04-05T11:02:02.934Z,11.03
2019-04-05T11:04:34.674Z,10.65
2019-04-05T11:07:06.343Z,11.20
2019-04-05T11:09:38.298Z,10.55
2019-04-05T11:12:09.956Z,11.05
2019-04-05T11:14:41.716Z,16.17
2019-04-05T11:17:13.375Z,15.63
2019-04-05T11:19:45.133Z,10.40
2019-04-05T11:22:20.194Z,11.08
2019-04-05T11:24:50.137Z,10.58
2019-04-05T11:27:22.976Z,11.65
2019-04-05T11:29:54.565Z,11.03
2019-04-05T11:32:26.295Z,10.53
2019-04-05T11:34:57.844Z,10.60
2019-04-05T11:37:29.603Z,11.03
2019-04-05T11:40:01.473Z,11.10
2019-04-05T11:42:33.303Z,11.08
2019-04-05T11:45:05.808Z,10.80
2019-04-05T11:47:37.742Z,10.78
2019-04-05T11:50:10.576Z,10.53
2019-04-05T11:52:41.947Z,10.63
2019-04-05T11:55:13.386Z,10.58
2019-04-05T11:57:44.822Z,10.28
2019-04-05T12:00:32.922Z,10.20
2019-04-05T12:03:18.167Z,10.45
2019-04-05T12:05:49.611Z,11.45
2019-04-05T12:08:21.092Z,10.35
2019-04-05T12:10:52.786Z,10.35
2019-04-05T12:13:24.164Z,11.70
2019-04-05T12:15:58.006Z,11.45
2019-04-05T12:18:28.616Z,11.43
2019-04-05T12:21:00.812Z,11.50
2019-04-05T12:23:33.555Z,11.60
2019-04-05T12:26:05.323Z,11.20
2019-04-05T12:28:36.642Z,11.97
2019-04-05T12:31:08.136Z,11.48
2019-04-05T12:33:39.600Z,11.95
2019-04-05T12:36:11.172Z,16.73
2019-04-05T12:38:42.545Z,45.60
2019-04-05T12:41:13.971Z,13.28
2019-04-05T12:43:45.694Z,14.47
2019-04-05T12:46:17.172Z,11.25
2019-04-05T12:48:48.615Z,11.08
2019-04-05T12:51:20.171Z,11.78
2019-04-05T12:53:51.635Z,11.73
2019-04-05T12:56:26.209Z,16.30
2019-04-05T12:58:56.732Z,21.35
2019-04-05T13:01:28.066Z,16.27
2019-04-05T13:04:00.510Z,11.90
2019-04-05T13:06:32.008Z,12.68
2019-04-05T13:09:05.590Z,11.63
2019-04-05T13:11:37.428Z,11.08
2019-04-05T13:14:08.926Z,12.40
2019-04-05T13:16:40.343Z,13.98
2019-04-05T13:19:11.905Z,13.45
2019-04-05T13:21:43.363Z,12.90
2019-04-05T13:24:14.789Z,13.53
2019-04-05T13:26:46.260Z,13.35
2019-04-05T13:29:19.668Z,13.48
2019-04-05T13:31:50.802Z,13.30
2019-04-05T13:34:25.489Z,13.60
2019-04-05T13:36:55.358Z,13.53
2019-04-05T13:39:27.556Z,14.45
2019-04-05T13:42:01.777Z,14.63
2019-04-05T13:44:33.080Z,14.80
2019-04-05T13:47:08.076Z,14.85
2019-04-05T13:49:38.543Z,12.60
2019-04-05T13:52:12.023Z,11.83
2019-04-05T13:54:44.123Z,13.25
2019-04-05T13:57:15.580Z,17.85
2019-04-05T13:59:47.240Z,14.03
2019-04-05T14:02:21.056Z,14.50
2019-04-05T14:04:53.853Z,15.63
2019-04-05T14:07:25.354Z,14.18
2019-04-05T14:09:56.803Z,12.88
2019-04-05T14:12:31.095Z,13.38
2019-04-05T14:15:01.267Z,13.32
2019-04-05T14:17:32.652Z,19.30
2019-04-05T14:20:04.859Z,14.50
2019-04-05T14:22:36.242Z,14.45
2019-04-05T14:25:07.852Z,15.38
2019-04-05T14:27:40.333Z,14.35
2019-04-05T14:30:13.617Z,13.60
2019-04-05T14:32:45.028Z,14.23
2019-04-05T14:35:16.971Z,14.03
2019-04-05T14:37:48.439Z,13.58
2019-04-05T14:40:19.894Z,14.55
2019-04-05T14:42:51.281Z,14.28
2019-04-05T14:45:22.697Z,16.42
2019-04-05T14:47:57.710Z,16.12
2019-04-05T14:50:28.207Z,14.73
2019-04-05T14:53:01.727Z,15.20
2019-04-05T14:55:33.431Z,16.12
2019-04-05T14:58:06.015Z,22.80
2019-04-05T15:00:37.652Z,18.15
2019-04-05T15:03:09.015Z,15.72
2019-04-05T15:05:40.454Z,15.68
2019-04-05T15:08:11.917Z,16.25
2019-04-05T15:10:43.377Z,24.85
2019-04-05T15:13:14.851Z,202.20
2019-04-05T15:15:46.371Z,80.72
2019-04-05T15:18:19.549Z,136.47
2019-04-05T15:20:50.916Z,23.05
2019-04-05T15:23:22.271Z,54.90
2019-04-05T15:25:53.765Z,26.62
2019-04-05T15:28:25.322Z,17.98
2019-04-05T15:30:56.759Z,76.50
2019-04-05T15:33:28.449Z,67.82
2019-04-05T15:36:02.839Z,336.15
2019-04-05T15:38:34.157Z,29.27
2019-04-05T15:41:05.657Z,15.40
2019-04-05T15:43:37.070Z,15.20
2019-04-05T15:46:08.533Z,29.30
2019-04-05T15:48:39.885Z,33.35
2019-04-05T15:51:11.235Z,45.25
2019-04-05T15:53:42.691Z,51.77
2019-04-05T15:56:14.147Z,34.03
2019-04-05T15:58:45.601Z,31.30
2019-04-05T16:01:17.104Z,36.17
2019-04-05T16:03:48.508Z,37.53
2019-04-05T16:06:20.159Z,39.33
2019-04-05T16:08:51.617Z,42.33
2019-04-05T16:11:23.118Z,53.48
2019-04-05T16:13:54.572Z,55.25
2019-04-05T16:16:26.589Z,63.80
2019-04-05T16:18:58.360Z,57.03
2019-04-05T16:21:29.838Z,56.00
2019-04-05T16:24:01.274Z,57.33
2019-04-05T16:26:32.718Z,51.98
2019-04-05T16:29:04.113Z,47.13
2019-04-05T16:31:35.532Z,48.10
2019-04-05T16:34:06.986Z,49.33
2019-04-05T16:36:38.653Z,50.15
2019-04-05T16:39:11.616Z,55.12
2019-04-05T16:41:43.131Z,49.03
2019-04-05T16:44:14.483Z,50.63
2019-04-05T16:46:45.854Z,46.42
2019-04-05T16:49:17.325Z,37.88
2019-04-05T16:51:48.814Z,39.20
2019-04-05T16:54:20.234Z,39.50
2019-04-05T16:56:51.704Z,41.58
2019-04-05T16:59:23.345Z,42.38
2019-04-05T17:01:56.818Z,39.33
2019-04-05T17:04:27.888Z,40.20
2019-04-05T17:06:59.581Z,38.23
2019-04-05T17:09:31.014Z,40.28
2019-04-05T17:12:02.442Z,44.13
2019-04-05T17:14:33.902Z,44.55
2019-04-05T17:17:05.264Z,43.83
2019-04-05T17:19:36.728Z,40.23
2019-04-05T17:22:08.089Z,42.90
2019-04-05T17:27:10.995Z,42.58
2019-04-05T17:29:42.423Z,40.35
2019-04-05T17:32:13.916Z,39.90
2019-04-05T17:34:45.294Z,36.63
2019-04-05T17:37:16.698Z,42.83
2019-04-05T17:39:48.181Z,42.25
2019-04-05T17:42:19.589Z,46.88
2019-04-05T17:44:50.935Z,49.63
2019-04-05T17:47:22.309Z,47.78
2019-04-05T17:49:53.752Z,91.53
2019-04-05T17:52:25.098Z,96.65
2019-04-05T17:54:56.562Z,80.35
2019-04-05T17:57:28.007Z,89.70
2019-04-05T17:59:59.458Z,93.70
2019-04-05T18:02:30.914Z,89.42
2019-04-05T18:05:02.371Z,95.38
2019-04-05T18:07:34.042Z,130.22
2019-04-05T18:10:06.286Z,178.65
2019-04-05T18:12:37.755Z,176.45
2019-04-05T18:15:09.125Z,141.75
2019-04-05T18:17:40.551Z,137.57
2019-04-05T18:20:12.008Z,97.97
2019-04-05T18:22:43.468Z,101.40
2019-04-05T18:25:14.813Z,105.92
2019-04-05T18:27:46.382Z,109.45
2019-04-05T18:30:17.843Z,108.37
2019-04-05T18:32:49.272Z,106.25
2019-04-05T18:35:22.278Z,110.17
2019-04-05T18:37:53.737Z,101.75
2019-04-05T18:40:25.112Z,104.90
2019-04-05T18:42:56.737Z,107.63
2019-04-05T18:45:28.121Z,103.58
2019-04-05T18:47:59.538Z,131.80
2019-04-05T18:50:31.041Z,109.05
2019-04-05T18:53:02.426Z,108.78
2019-04-05T18:55:33.913Z,116.17
2019-04-05T18:58:05.490Z,109.05
2019-04-05T19:00:36.899Z,105.12
2019-04-05T19:03:08.468Z,109.72
2019-04-05T19:05:40.055Z,123.85
2019-04-05T19:08:11.473Z,122.98
2019-04-05T19:10:42.925Z,112.50
2019-04-05T19:13:14.405Z,110.92
2019-04-05T19:15:46.027Z,109.22
2019-04-05T19:18:17.451Z,106.95
2019-04-05T19:20:48.944Z,106.00
2019-04-05T19:23:20.395Z,111.15
2019-04-05T19:25:51.849Z,158.87
2019-04-05T19:28:23.297Z,179.27
2019-04-05T19:48:48.852Z,142.43
2019-04-05T19:51:20.307Z,131.57
2019-04-05T19:54:00.825Z,129.93
2019-04-05T19:56:24.844Z,133.87
2019-04-05T19:58:56.232Z,137.20
2019-04-05T20:01:27.629Z,176.47
2019-04-05T20:03:59.251Z,159.75
2019-04-05T20:06:30.875Z,134.07
2019-04-05T20:09:02.285Z,132.22
2019-04-05T20:11:35.108Z,134.30
2019-04-05T20:14:06.571Z,133.75
2019-04-05T20:16:38.028Z,146.15
2019-04-05T20:19:09.581Z,188.75
2019-04-05T20:21:41.044Z,148.68
2019-04-05T20:24:14.573Z,151.75
2019-04-05T20:26:46.161Z,140.95
2019-04-05T20:29:17.632Z,136.75
2019-04-05T20:31:49.051Z,133.93
2019-04-05T20:34:20.439Z,132.27
2019-04-05T20:36:51.933Z,137.80
2019-04-05T20:39:23.319Z,139.90
2019-04-05T20:41:54.684Z,132.60
2019-04-05T20:44:26.149Z,132.00
2019-04-05T20:46:57.526Z,128.07
2019-04-05T20:49:28.960Z,138.82
2019-04-05T20:52:00.476Z,129.38
2019-04-05T20:54:31.907Z,124.90
2019-04-05T20:57:03.329Z,125.53
2019-04-05T20:59:34.766Z,138.62
2019-04-05T21:02:06.237Z,164.62
2019-04-05T21:04:37.609Z,167.18
2019-04-05T21:07:09.023Z,163.92
2019-04-05T21:09:40.579Z,156.93
2019-04-05T21:12:12.036Z,157.70
2019-04-05T21:14:43.588Z,157.30
2019-04-05T21:17:15.033Z,151.53
2019-04-05T21:19:46.492Z,144.57
2019-04-05T21:22:17.892Z,150.45
2019-04-05T21:24:49.301Z,147.32
2019-04-05T21:27:20.746Z,149.50
2019-04-05T21:29:52.225Z,222.73
2019-04-05T21:32:23.632Z,192.40
2019-04-05T21:34:55.105Z,172.80
2019-04-05T21:37:28.721Z,162.10
2019-04-05T21:40:00.168Z,162.70
2019-04-05T21:42:31.821Z,168.28
2019-04-05T21:45:03.317Z,171.62
2019-04-05T21:47:34.733Z,175.12
2019-04-05T21:50:07.398Z,173.65
2019-04-05T21:52:38.875Z,170.50
2019-04-05T21:55:11.835Z,176.00
2019-04-05T21:57:43.429Z,173.40
2019-04-05T22:00:31.428Z,172.25
2019-04-05T22:03:04.734Z,166.57
2019-04-05T22:05:37.318Z,179.12
2019-04-05T22:08:08.997Z,171.05
2019-04-05T22:10:41.660Z,175.15
2019-04-05T22:13:13.335Z,167.72
2019-04-05T22:15:44.921Z,165.65
2019-04-05T22:18:16.539Z,166.05
2019-04-05T22:20:49.230Z,164.22
2019-04-05T22:23:20.882Z,153.87
2019-04-05T22:25:52.550Z,162.15
2019-04-05T22:28:24.197Z,166.12
2019-04-05T22:30:55.865Z,162.10
2019-04-05T22:33:27.739Z,161.52
2019-04-05T22:35:59.377Z,158.65
2019-04-05T22:38:31.060Z,161.25
2019-04-05T22:41:02.728Z,159.10
2019-04-05T22:43:34.310Z,166.20
2019-04-05T22:46:05.890Z,165.10
2019-04-05T22:48:37.585Z,163.62
2019-04-05T22:51:09.277Z,162.57
2019-04-05T22:53:40.947Z,159.52
2019-04-05T22:56:12.652Z,158.12
2019-04-05T22:58:44.334Z,156.90
2019-04-05T23:01:15.927Z,153.40
2019-04-05T23:03:47.610Z,156.07
2019-04-05T23:06:19.294Z,151.50
2019-04-05T23:08:50.933Z,148.55
2019-04-05T23:11:22.605Z,143.37
2019-04-05T23:13:54.241Z,143.55
2019-04-05T23:16:25.815Z,141.15
2019-04-05T23:18:57.485Z,150.42
2019-04-05T23:21:29.133Z,143.75
2019-04-05T23:24:00.813Z,139.32
2019-04-05T23:26:32.426Z,140.12
2019-04-05T23:29:04.086Z,139.90
2019-04-05T23:31:35.737Z,140.15
2019-04-05T23:34:07.403Z,139.55
2019-04-05T23:36:39.196Z,143.70
2019-04-05T23:39:10.817Z,146.15
2019-04-05T23:41:42.478Z,144.40
2019-04-05T23:44:14.146Z,141.10
2019-04-05T23:46:45.830Z,148.65
2019-04-05T23:49:17.461Z,154.90
2019-04-05T23:51:49.094Z,154.10
2019-04-05T23:54:20.686Z,159.75
2019-04-05T23:56:52.339Z,160.40
2019-04-05T23:59:24.962Z,161.37
